Time;durP1;ratioP1;P1;durP2;ratioP2;P2;SDS_P1;SDS_P2;PMS_P1;PMS_P2;Temp;Humidity;BMP_temperature;BMP_pressure;BME280_temperature;BME280_humidity;BME280_pressure;Samples;Min_cycle;Max_cycle;Signal;HPM_P1;HPM_P2
2021/01/19 00:00:58;;;;;;;56.45;24.15;;;;;;;-13.73;69.84;99262.71;1726295;83;21320;-54
2021/01/19 00:03:26;;;;;;;58.23;22.77;;;;;;;-13.61;69.39;99246.31;1713277;83;21308;-53
2021/01/19 00:05:54;;;;;;;53.83;23.57;;;;;;;-13.50;69.25;99249.08;1709546;84;21350;-52
2021/01/19 00:08:21;;;;;;;58.78;24.02;;;;;;;-13.46;68.54;99251.16;1709502;84;21288;-53
2021/01/19 00:10:49;;;;;;;51.37;22.77;;;;;;;-13.52;68.28;99250.14;1709720;84;21308;-53
2021/01/19 00:13:20;;;;;;;51.68;20.43;;;;;;;-13.64;68.12;99249.68;1709558;84;21299;-54
2021/01/19 00:15:48;;;;;;;47.85;21.90;;;;;;;-13.74;68.21;99254.72;1709637;84;21355;-53
2021/01/19 00:18:16;;;;;;;58.90;23.18;;;;;;;-13.80;68.45;99249.62;1709595;84;21328;-52
2021/01/19 00:20:45;;;;;;;55.85;22.60;;;;;;;-13.74;68.74;99248.52;1709575;84;21170;-54
2021/01/19 00:23:13;;;;;;;56.83;23.73;;;;;;;-13.64;68.55;99243.84;1709753;84;21699;-53
2021/01/19 00:25:43;;;;;;;57.23;24.07;;;;;;;-13.68;68.42;99249.20;1709695;84;21173;-52
2021/01/19 00:28:11;;;;;;;53.20;22.75;;;;;;;-13.64;68.53;99244.72;1709419;84;21194;-53
2021/01/19 00:30:40;;;;;;;50.05;22.80;;;;;;;-13.53;68.74;99243.76;1709696;84;21272;-53
2021/01/19 00:33:10;;;;;;;51.35;23.62;;;;;;;-13.46;68.55;99247.06;1709436;84;21308;-51
2021/01/19 00:35:43;;;;;;;53.42;22.37;;;;;;;-13.37;68.23;99249.67;1709370;84;21138;-52
2021/01/19 00:38:09;;;;;;;48.85;21.45;;;;;;;-13.52;67.66;99248.02;1709191;83;21169;-52
2021/01/19 00:40:37;;;;;;;49.70;23.05;;;;;;;-13.65;67.97;99247.05;1709371;84;21162;-52
2021/01/19 00:43:05;;;;;;;52.15;22.27;;;;;;;-13.72;67.97;99249.58;1709553;84;21541;-53
2021/01/19 00:45:33;;;;;;;52.35;23.85;;;;;;;-13.75;68.21;99245.16;1709503;84;21157;-54
2021/01/19 00:48:02;;;;;;;58.42;25.12;;;;;;;-13.73;68.23;99228.86;1709568;84;21153;-54
2021/01/19 00:50:31;;;;;;;50.48;21.02;;;;;;;-13.72;67.96;99237.17;1709386;84;21548;-54
2021/01/19 00:53:02;;;;;;;54.15;23.20;;;;;;;-13.84;68.00;99239.19;1709582;84;21173;-54
2021/01/19 00:55:31;;;;;;;59.98;24.65;;;;;;;-13.94;68.38;99242.62;1709591;84;21185;-53
2021/01/19 00:57:59;;;;;;;51.63;23.42;;;;;;;-14.01;68.38;99234.52;1709392;84;21166;-52
2021/01/19 01:00:26;;;;;;;62.27;25.80;;;;;;;-14.18;68.65;99237.09;1709359;84;21134;-53
2021/01/19 01:02:54;;;;;;;60.50;22.93;;;;;;;-14.21;69.12;99239.76;1716523;83;21379;-52
2021/01/19 01:05:22;;;;;;;59.80;23.83;;;;;;;-14.18;69.03;99228.06;1726443;83;21178;-53
2021/01/19 01:07:50;;;;;;;58.52;21.90;;;;;;;-14.21;69.11;99232.32;1726517;83;21174;-53
2021/01/19 01:10:18;;;;;;;61.40;24.07;;;;;;;-14.18;69.31;99223.47;1726407;83;21297;-54
2021/01/19 01:12:46;;;;;;;55.43;24.12;;;;;;;-14.15;69.41;99228.75;1726253;83;21157;-54
2021/01/19 01:15:20;;;;;;;63.17;25.25;;;;;;;-14.01;69.66;99223.73;1726354;83;21173;-55
2021/01/19 01:17:47;;;;;;;60.45;25.10;;;;;;;-13.91;69.50;99225.26;1726531;83;21138;-55
2021/01/19 01:20:15;;;;;;;56.37;22.37;;;;;;;-13.84;69.54;99224.30;1726220;83;21166;-53
2021/01/19 01:22:45;;;;;;;57.73;22.13;;;;;;;-13.74;69.35;99224.59;1726634;83;21154;-54
2021/01/19 01:25:14;;;;;;;53.15;24.55;;;;;;;-13.78;68.83;99216.31;1726501;83;21166;-54
2021/01/19 01:27:45;;;;;;;37.30;16.60;;;;;;;-13.92;69.11;99215.16;1726426;83;21300;-53
2021/01/19 01:30:16;;;;;;;;;;;;;;;-13.98;68.92;99219.09;1728480;83;21613;-52
2021/01/19 01:32:51;;;;;;;52.85;20.35;;;;;;;-14.17;69.13;99227.70;1726223;83;20128;-51
2021/01/19 01:35:20;;;;;;;48.05;20.20;;;;;;;-14.25;69.49;99224.37;1726509;83;21181;-53
2021/01/19 01:37:54;;;;;;;52.62;17.95;;;;;;;-14.31;69.78;99228.30;1726406;83;21316;-52
2021/01/19 01:40:25;;;;;;;48.80;22.30;;;;;;;-14.38;69.98;99227.09;1726194;83;21312;-53
2021/01/19 01:42:58;;;;;;;52.58;23.92;;;;;;;-14.52;70.19;99227.17;1726461;83;21186;-54
2021/01/19 01:45:28;;;;;;;54.60;23.70;;;;;;;-14.55;70.45;99226.84;1726225;83;21166;-54
2021/01/19 01:47:58;;;;;;;52.93;24.32;;;;;;;-14.44;71.03;99221.47;1726205;83;21166;-54
2021/01/19 01:50:26;;;;;;;50.52;22.05;;;;;;;-14.25;70.80;99225.25;1726218;83;21162;-54
2021/01/19 01:52:55;;;;;;;55.75;22.40;;;;;;;-14.16;70.63;99220.80;1726317;83;21305;-54
2021/01/19 01:55:23;;;;;;;47.65;21.75;;;;;;;-14.01;70.69;99223.36;1726271;83;21165;-54
2021/01/19 01:57:51;;;;;;;49.80;22.73;;;;;;;-14.00;70.05;99228.83;1726418;83;21308;-53
2021/01/19 02:00:20;;;;;;;57.88;23.80;;;;;;;-14.07;70.09;99227.99;1726521;83;21312;-52
2021/01/19 02:02:56;;;;;;;50.80;22.27;;;;;;;-14.18;70.13;99225.94;1721735;83;21320;-56
2021/01/19 02:05:27;;;;;;;48.75;21.65;;;;;;;-14.03;70.85;99225.15;1709403;84;21165;-56
2021/01/19 02:08:24;;;;;;;49.73;20.85;;;;;;;-13.93;70.27;99224.56;1709520;84;21135;-52
2021/01/19 02:11:33;;;;;;;60.38;24.57;;;;;;;-14.04;69.76;99224.27;1709635;84;21170;-53
2021/01/19 02:14:11;;;;;;;46.33;20.75;;;;;;;-14.18;70.28;99225.58;1709423;84;21206;-53
2021/01/19 02:17:06;;;;;;;43.58;20.37;;;;;;;-14.10;70.34;99227.66;1686594;84;21146;-53
2021/01/19 02:20:01;;;;;;;49.85;21.30;;;;;;;-14.31;69.96;99222.47;1709310;83;21233;-54
2021/01/19 02:22:44;;;;;;;51.50;22.62;;;;;;;-14.62;70.54;99227.77;1709587;84;21303;-53
2021/01/19 02:25:20;;;;;;;44.23;18.35;;;;;;;-14.71;71.12;99221.77;1708849;83;21181;-54
2021/01/19 02:28:18;;;;;;;48.85;20.85;;;;;;;-14.91;71.15;99226.95;1707317;83;21363;-55
2021/01/19 02:31:11;;;;;;;48.60;18.55;;;;;;;-15.02;71.70;99218.69;1697307;84;21174;-54
2021/01/19 02:34:04;;;;;;;45.73;17.85;;;;;;;-14.93;72.10;99218.46;1708362;83;21176;-53
2021/01/19 02:37:02;;;;;;;46.98;21.35;;;;;;;-14.89;71.89;99220.59;1709567;84;21295;-53
2021/01/19 02:39:41;;;;;;;39.65;19.25;;;;;;;-14.98;72.01;99217.06;1709307;84;21299;-54
2021/01/19 02:42:13;;;;;;;50.50;20.55;;;;;;;-14.92;72.03;99212.45;1709201;83;21130;-53
2021/01/19 02:44:43;;;;;;;43.00;16.87;;;;;;;-14.99;72.01;99212.47;1709500;83;21170;-53
2021/01/19 02:47:15;;;;;;;37.17;17.62;;;;;;;-15.04;72.17;99204.88;1709562;84;21165;-54
2021/01/19 02:49:43;;;;;;;36.95;15.55;;;;;;;-15.18;71.95;99215.70;1709729;84;21568;-55
2021/01/19 02:52:13;;;;;;;35.68;17.62;;;;;;;-15.27;72.33;99213.41;1709560;83;21292;-52
2021/01/19 02:54:43;;;;;;;39.83;16.42;;;;;;;-15.38;72.55;99214.67;1709657;84;21197;-53
2021/01/19 02:57:32;;;;;;;36.65;16.40;;;;;;;-15.50;72.81;99208.67;1709655;84;21193;-54
2021/01/19 03:00:17;;;;;;;36.35;15.65;;;;;;;-15.54;72.90;99213.27;1709478;83;21170;-52
2021/01/19 03:02:46;;;;;;;33.20;15.60;;;;;;;-15.58;73.03;99218.91;1710962;83;21138;-54
2021/01/19 03:05:15;;;;;;;35.45;15.08;;;;;;;-15.56;73.03;99214.67;1726359;83;21170;-52
2021/01/19 03:07:45;;;;;;;37.67;17.20;;;;;;;-15.57;72.88;99221.58;1699908;83;21312;-54
2021/01/19 03:10:15;;;;;;;33.65;15.08;;;;;;;-15.61;73.09;99212.03;1726391;83;21296;-57
2021/01/19 03:12:47;;;;;;;42.98;17.35;;;;;;;-15.70;73.01;99219.64;1726732;83;21162;-56
2021/01/19 03:15:16;;;;;;;42.62;18.25;;;;;;;-15.77;73.36;99225.81;1726322;83;21126;-56
2021/01/19 03:17:45;;;;;;;41.83;17.35;;;;;;;-15.74;73.50;99216.30;1726326;83;21316;-54
2021/01/19 03:20:14;;;;;;;43.02;18.32;;;;;;;-15.65;73.47;99232.16;1726414;83;21308;-52
2021/01/19 03:22:42;;;;;;;43.60;17.37;;;;;;;-15.53;73.49;99222.44;1726547;83;21229;-55
2021/01/19 03:25:10;;;;;;;46.45;19.10;;;;;;;-15.49;73.18;99226.17;1726622;83;21194;-54
2021/01/19 03:27:38;;;;;;;40.60;17.05;;;;;;;-15.55;72.98;99221.38;1726636;83;21173;-54
2021/01/19 03:30:08;;;;;;;41.10;17.67;;;;;;;-15.46;73.09;99220.70;1726488;83;21556;-54
2021/01/19 03:32:36;;;;;;;38.40;16.67;;;;;;;-15.43;72.89;99219.44;1726860;83;21178;-55
2021/01/19 03:35:06;;;;;;;37.23;17.17;;;;;;;-15.46;72.61;99218.22;1726373;83;21170;-52
2021/01/19 03:37:35;;;;;;;30.23;13.30;;;;;;;-15.51;72.54;99211.86;1726624;83;21316;-54
2021/01/19 03:40:09;;;;;;;37.75;17.00;;;;;;;-15.70;72.37;99227.06;1726581;83;21185;-54
2021/01/19 03:42:39;;;;;;;40.33;15.00;;;;;;;-15.84;72.70;99221.77;1726502;83;21569;-52
2021/01/19 03:45:08;;;;;;;29.07;13.05;;;;;;;-15.85;72.97;99225.28;1726563;83;21297;-55
2021/01/19 03:47:35;;;;;;;36.08;16.35;;;;;;;-15.89;73.01;99222.81;1726477;83;21186;-53
2021/01/19 03:50:05;;;;;;;30.52;12.65;;;;;;;-15.87;73.20;99220.18;1726412;83;21162;-60
2021/01/19 03:52:32;;;;;;;39.48;15.85;;;;;;;-15.86;73.09;99213.28;1726286;83;21162;-53
2021/01/19 03:55:00;;;;;;;37.95;14.10;;;;;;;-15.80;73.20;99222.99;1726625;83;21204;-54
2021/01/19 03:57:28;;;;;;;33.95;14.10;;;;;;;-15.70;73.02;99222.11;1726615;83;21285;-52
2021/01/19 03:59:56;;;;;;;32.28;13.93;;;;;;;-15.57;73.09;99227.77;1726587;83;21175;-55
2021/01/19 04:02:24;;;;;;;31.75;14.60;;;;;;;-15.55;72.62;99219.27;1726476;83;21170;-53
2021/01/19 04:04:53;;;;;;;28.83;12.85;;;;;;;-15.65;72.42;99223.50;1726284;83;21291;-52
2021/01/19 04:07:21;;;;;;;38.92;16.77;;;;;;;-15.72;72.72;99231.30;1726284;83;21134;-52
2021/01/19 04:09:48;;;;;;;33.73;14.70;;;;;;;-15.77;72.67;99220.54;1726311;83;21158;-53
2021/01/19 04:12:16;;;;;;;35.33;15.65;;;;;;;-15.81;72.78;99220.00;1726586;83;21182;-52
2021/01/19 04:14:45;;;;;;;40.48;16.17;;;;;;;-15.87;72.77;99221.41;1726584;83;21127;-54
2021/01/19 04:17:12;;;;;;;37.85;15.32;;;;;;;-15.86;73.00;99220.70;1726582;83;21167;-52
2021/01/19 04:19:41;;;;;;;36.45;14.78;;;;;;;-15.91;72.97;99211.86;1726488;83;21146;-52
2021/01/19 04:22:09;;;;;;;26.90;9.43;;;;;;;-15.96;73.02;99211.68;1726560;83;21313;-53
2021/01/19 04:24:37;;;;;;;34.08;14.95;;;;;;;-16.06;73.21;99209.72;1726397;83;21154;-52
2021/01/19 04:27:05;;;;;;;36.68;16.48;;;;;;;-16.10;73.54;99202.67;1726328;83;21280;-52
2021/01/19 04:29:32;;;;;;;34.73;16.40;;;;;;;-16.13;73.50;99213.41;1726293;83;21272;-54
2021/01/19 04:32:00;;;;;;;36.40;16.23;;;;;;;-16.16;73.62;99211.81;1726602;83;21146;-52
2021/01/19 04:34:28;;;;;;;38.60;15.28;;;;;;;-16.13;73.66;99208.82;1726332;83;21295;-50
2021/01/19 04:36:55;;;;;;;36.90;15.43;;;;;;;-16.22;73.58;99208.28;1726311;83;21166;-49
2021/01/19 04:39:23;;;;;;;33.60;14.93;;;;;;;-16.27;73.78;99204.39;1726369;83;21162;-49
2021/01/19 04:41:51;;;;;;;40.17;17.52;;;;;;;-16.34;73.88;99208.43;1726415;83;21139;-51
2021/01/19 04:44:20;;;;;;;20.72;9.70;;;;;;;-16.35;74.17;99206.67;1726591;83;21309;-51
2021/01/19 04:46:48;;;;;;;37.90;16.48;;;;;;;-16.35;74.17;99222.73;1726469;83;21150;-53
2021/01/19 04:49:17;;;;;;;41.30;17.12;;;;;;;-16.39;74.27;99221.83;1726478;83;21296;-51
2021/01/19 04:51:47;;;;;;;31.57;12.55;;;;;;;-16.36;74.32;99216.87;1726265;83;21301;-54
2021/01/19 04:54:17;;;;;;;26.37;12.18;;;;;;;-16.28;74.29;99216.22;1726454;83;21305;-52
2021/01/19 04:56:58;;;;;;;38.35;15.58;;;;;;;-16.33;74.28;99225.91;1726451;83;21158;-51
2021/01/19 04:59:26;;;;;;;39.03;17.93;;;;;;;-16.37;74.38;99225.36;1726480;83;21276;-51
2021/01/19 05:02:05;;;;;;;40.70;16.42;;;;;;;-16.38;74.50;99224.81;1726216;83;21656;-51
2021/01/19 05:04:46;;;;;;;45.75;18.35;;;;;;;-16.44;74.69;99222.15;1716339;83;21308;-55
2021/01/19 05:07:33;;;;;;;41.23;17.48;;;;;;;-16.51;74.93;99220.91;1709600;83;21300;-50
2021/01/19 05:10:07;;;;;;;57.45;23.77;;;;;;;-16.44;75.10;99232.03;1709432;83;21158;-54
2021/01/19 05:12:42;;;;;;;53.52;21.20;;;;;;;-16.28;75.22;99231.37;1709628;84;21194;-55
2021/01/19 05:15:15;;;;;;;26.37;12.37;;;;;;;-16.14;74.96;99240.07;1709597;84;21573;-51
2021/01/19 05:17:43;;;;;;;34.30;15.83;;;;;;;-16.08;74.76;99246.08;1709572;84;21299;-51
2021/01/19 05:20:12;;;;;;;34.23;15.53;;;;;;;-16.06;74.73;99244.31;1709358;84;21186;-50
2021/01/19 05:22:40;;;;;;;44.75;18.12;;;;;;;-16.10;74.64;99252.09;1709527;84;21122;-51
2021/01/19 05:25:09;;;;;;;37.83;16.45;;;;;;;-16.11;74.76;99247.84;1709347;84;21186;-94
2021/01/19 05:27:37;;;;;;;39.20;15.08;;;;;;;-16.15;74.65;99254.37;1709345;84;21161;-52
2021/01/19 05:30:07;;;;;;;41.02;16.15;;;;;;;-16.17;74.90;99252.06;1709543;84;21166;-52
2021/01/19 05:32:43;;;;;;;44.73;18.02;;;;;;;-16.01;75.09;99260.93;1709708;84;21573;-51
2021/01/19 05:35:18;;;;;;;35.45;16.57;;;;;;;-15.92;74.80;99254.93;1709331;83;21173;-53
2021/01/19 05:37:58;;;;;;;45.58;18.27;;;;;;;-15.88;74.53;99250.89;1708934;83;21185;-53
2021/01/19 05:40:27;;;;;;;33.18;16.05;;;;;;;-15.88;74.58;99260.78;1709566;84;21170;-53
2021/01/19 05:42:55;;;;;;;39.25;16.40;;;;;;;-15.85;74.53;99260.77;1709514;84;21195;-52
2021/01/19 05:45:23;;;;;;;29.87;14.07;;;;;;;-15.83;74.53;99263.44;1711862;83;21142;-51
2021/01/19 05:47:53;;;;;;;36.93;16.82;;;;;;;-15.79;74.55;99259.03;1716206;83;21115;-52
2021/01/19 05:50:21;;;;;;;45.55;18.10;;;;;;;-15.82;74.19;99257.77;1714936;83;21312;-50
2021/01/19 05:52:53;;;;;;;34.00;15.13;;;;;;;-15.89;74.32;99267.67;1715606;83;21261;-51
2021/01/19 05:55:28;;;;;;;36.48;13.95;;;;;;;-15.86;74.58;99265.55;1716378;83;21749;-52
2021/01/19 05:57:56;;;;;;;38.85;17.77;;;;;;;-15.89;74.37;99266.44;1716393;83;21260;-52
2021/01/19 06:00:27;;;;;;;37.53;15.35;;;;;;;-15.93;74.44;99260.23;1695502;83;21264;-51
2021/01/19 06:02:55;;;;;;;33.90;15.70;;;;;;;-15.91;74.66;99265.37;1715410;83;21130;-51
2021/01/19 06:05:23;;;;;;;29.98;14.45;;;;;;;-15.86;74.55;99260.61;1712351;83;21272;-51
2021/01/19 06:07:51;;;;;;;37.60;15.78;;;;;;;-15.82;74.54;99262.72;1715843;83;21150;-51
2021/01/19 06:10:21;;;;;;;32.80;14.33;;;;;;;-15.81;74.39;99265.73;1679349;83;21121;-52
2021/01/19 06:12:51;;;;;;;37.65;15.13;;;;;;;-15.70;74.62;99261.68;1709374;83;21162;-51
2021/01/19 06:15:27;;;;;;;36.65;16.27;;;;;;;-15.62;74.14;99264.69;1714020;83;21560;-52
2021/01/19 06:17:56;;;;;;;34.10;14.50;;;;;;;-15.62;74.04;99258.50;1716409;83;21145;-53
2021/01/19 06:20:24;;;;;;;40.80;16.90;;;;;;;-15.58;73.96;99259.36;1703054;84;21185;-52
2021/01/19 06:22:52;;;;;;;40.65;16.82;;;;;;;-15.48;73.70;99265.03;1704737;84;21182;-66
2021/01/19 06:25:19;;;;;;;30.75;14.68;;;;;;;-15.40;73.63;99268.03;1669493;86;21182;-52
2021/01/19 06:27:47;;;;;;;40.63;17.32;;;;;;;-15.32;73.30;99260.25;1707779;83;21272;-53
2021/01/19 06:30:16;;;;;;;38.20;16.37;;;;;;;-15.24;73.39;99260.77;1720354;83;21319;-53
2021/01/19 06:32:49;;;;;;;44.55;17.35;;;;;;;-14.62;73.63;99267.41;1650135;87;21316;-54
2021/01/19 06:35:20;;;;;;;32.67;14.95;;;;;;;-13.82;72.52;99265.05;1720263;83;21320;-54
2021/01/19 06:37:51;;;;;;;44.00;18.45;;;;;;;-13.30;70.53;99263.61;1719496;83;21146;-52
2021/01/19 06:40:22;;;;;;;41.02;19.37;;;;;;;-13.20;70.26;99267.57;1711456;83;21299;-54
2021/01/19 06:42:59;;;;;;;;;;;;;;;-13.08;69.93;99274.22;1637614;87;21182;-53
2021/01/19 06:45:27;;;;;;;38.55;15.98;;;;;;;-12.99;69.97;99273.61;1711976;83;20143;-53
2021/01/19 06:47:58;;;;;;;38.48;16.55;;;;;;;-12.87;69.05;99273.13;1719171;83;21131;-52
2021/01/19 06:50:29;;;;;;;37.85;18.25;;;;;;;-12.80;68.98;99267.73;1709478;83;21158;-55
2021/01/19 06:53:05;;;;;;;39.05;15.95;;;;;;;-12.77;68.12;99278.36;1650697;86;21681;-54
2021/01/19 06:55:59;;;;;;;34.73;16.42;;;;;;;-12.76;67.97;99275.17;1704302;83;21296;-53
2021/01/19 06:58:56;;;;;;;40.08;16.73;;;;;;;-12.62;67.56;99279.97;1705680;83;21300;-55
2021/01/19 07:01:28;;;;;;;43.78;19.57;;;;;;;-12.43;67.94;99290.63;1707004;83;21228;-52
2021/01/19 07:04:24;;;;;;;37.95;16.52;;;;;;;-12.10;67.89;99281.70;1707064;83;21620;-56
2021/01/19 07:07:18;;;;;;;33.20;15.53;;;;;;;-11.90;66.82;99285.37;1725477;82;21288;-54
2021/01/19 07:10:07;;;;;;;39.48;16.57;;;;;;;-11.81;66.36;99286.27;1726778;83;21324;-55
2021/01/19 07:13:09;;;;;;;37.88;17.55;;;;;;;-11.65;66.19;99292.44;1726774;83;21296;-55
2021/01/19 07:16:05;;;;;;;42.93;19.25;;;;;;;-11.39;66.08;99290.13;1726959;83;21213;-53
2021/01/19 07:19:16;;;;;;;44.30;17.75;;;;;;;-11.22;64.95;99283.98;1726307;83;21620;-54
2021/01/19 07:22:06;;;;;;;31.65;14.18;;;;;;;-11.21;64.57;99289.84;1722462;83;21304;-53
2021/01/19 07:24:45;;;;;;;31.75;13.55;;;;;;;-11.22;63.39;99295.53;1722609;83;21371;-53
2021/01/19 07:27:18;;;;;;;30.65;13.53;;;;;;;-11.33;63.02;99295.71;1722366;83;21687;-54
2021/01/19 07:29:47;;;;;;;25.92;12.55;;;;;;;-11.42;62.79;99292.28;1725403;83;21327;-55
2021/01/19 07:32:23;;;;;;;30.65;13.13;;;;;;;-11.59;62.74;99291.84;1722494;83;21206;-53
2021/01/19 07:34:51;;;;;;;32.03;14.53;;;;;;;-11.74;62.73;99297.73;1686550;84;21176;-55
2021/01/19 07:37:35;;;;;;;30.90;14.35;;;;;;;-11.95;61.88;99303.92;1658592;86;21171;-53
2021/01/19 07:40:19;;;;;;;28.80;13.90;;;;;;;-12.47;62.46;99292.77;1686014;83;21208;-55
2021/01/19 07:42:47;;;;;;;30.68;14.63;;;;;;;-12.68;63.17;99302.95;1659816;85;21162;-56
2021/01/19 07:45:16;;;;;;;33.80;15.83;;;;;;;-12.86;63.22;99299.77;1687552;84;21364;-53
2021/01/19 07:47:45;;;;;;;38.98;17.73;;;;;;;-12.94;64.03;99301.43;1687390;85;21188;-53
2021/01/19 07:50:16;;;;;;;27.40;14.10;;;;;;;-12.78;64.47;99306.05;1687336;85;21188;-54
2021/01/19 07:52:48;;;;;;;29.20;12.95;;;;;;;-12.70;63.84;99313.08;1687703;85;21334;-54
2021/01/19 07:55:22;;;;;;;18.82;9.48;;;;;;;-12.87;63.31;99312.88;1687777;85;21713;-54
2021/01/19 07:57:53;;;;;;;34.25;14.83;;;;;;;-13.04;63.64;99311.97;1687581;85;21180;-54
2021/01/19 08:00:25;;;;;;;27.45;13.45;;;;;;;-13.38;63.98;99320.78;1687278;85;21175;-56
2021/01/19 08:03:03;;;;;;;34.95;13.65;;;;;;;-13.52;64.56;99320.87;1687439;85;21310;-55
2021/01/19 08:05:32;;;;;;;35.23;15.40;;;;;;;-13.60;64.95;99324.99;1692151;85;21642;-53
2021/01/19 08:08:00;;;;;;;34.05;14.40;;;;;;;-13.41;65.65;99321.67;1695205;85;21171;-55
2021/01/19 08:10:35;;;;;;;32.85;14.60;;;;;;;-13.09;65.37;99318.41;1695065;85;21196;-54
2021/01/19 08:13:02;;;;;;;39.27;17.00;;;;;;;-12.99;65.45;99321.17;1694653;84;21191;-53
2021/01/19 08:15:33;;;;;;;30.82;14.68;;;;;;;-12.83;64.92;99323.31;1695353;85;21647;-56
2021/01/19 08:18:03;;;;;;;30.32;13.85;;;;;;;-12.64;65.05;99312.84;1695131;85;21212;-54
2021/01/19 08:20:35;;;;;;;28.90;12.68;;;;;;;-12.39;64.77;99322.53;1691934;85;21290;-55
2021/01/19 08:23:14;;;;;;;32.90;14.63;;;;;;;-12.02;64.00;99323.17;1695130;85;21187;-55
2021/01/19 08:25:42;;;;;;;34.83;14.85;;;;;;;-11.76;63.70;99322.45;1695106;85;21160;-54
2021/01/19 08:28:11;;;;;;;32.53;15.88;;;;;;;-11.44;62.82;99318.66;1695004;85;21164;-55
2021/01/19 08:30:40;;;;;;;35.43;15.28;;;;;;;-11.06;62.17;99314.17;1695268;85;21734;-55
2021/01/19 08:33:09;;;;;;;31.30;15.80;;;;;;;-10.39;61.82;99323.32;1695016;85;21176;-54
2021/01/19 08:35:41;;;;;;;36.53;16.27;;;;;;;-9.79;59.61;99320.68;1695189;84;21226;-56
2021/01/19 08:38:10;;;;;;;;;;;;;;;-9.15;60.18;99308.41;1697486;85;21128;-55
2021/01/19 08:40:40;;;;;;;39.73;18.15;;;;;;;-8.33;58.00;99310.04;1669526;85;20503;-56
2021/01/19 08:43:09;;;;;;;37.40;18.37;;;;;;;-7.75;56.33;99314.34;1669769;85;21175;-54
2021/01/19 08:45:39;;;;;;;38.65;18.85;;;;;;;-7.05;55.45;99312.01;1695086;85;21298;-54
2021/01/19 08:48:10;;;;;;;35.33;19.42;;;;;;;-6.62;53.05;99313.12;1695223;85;21172;-55
2021/01/19 08:50:42;;;;;;;31.60;17.27;;;;;;;-6.49;52.17;99305.84;1695050;85;21172;-53
2021/01/19 08:53:13;;;;;;;34.78;17.75;;;;;;;-6.29;51.01;99312.90;1695566;85;21172;-56
2021/01/19 08:55:45;;;;;;;34.33;17.87;;;;;;;-6.03;50.80;99310.00;1695267;85;21598;-56
2021/01/19 08:58:20;;;;;;;33.53;16.12;;;;;;;-5.71;49.63;99308.80;1695266;85;21196;-55
2021/01/19 09:00:49;;;;;;;33.98;17.57;;;;;;;-5.78;48.59;99308.67;1695017;84;21383;-55
2021/01/19 09:03:18;;;;;;;31.82;15.15;;;;;;;-6.03;48.28;99307.13;1695169;84;21175;-54
2021/01/19 09:05:47;;;;;;;34.30;17.57;;;;;;;-6.43;46.86;99306.38;1691407;85;21180;-55
2021/01/19 09:08:22;;;;;;;34.15;17.07;;;;;;;-6.99;47.73;99303.39;1695066;85;21175;-55
2021/01/19 09:10:53;;;;;;;33.58;16.05;;;;;;;-7.37;48.15;99303.88;1695022;85;21367;-55
2021/01/19 09:13:22;;;;;;;31.10;15.43;;;;;;;-7.71;48.83;99297.55;1694090;85;21322;-54
2021/01/19 09:15:52;;;;;;;39.83;18.32;;;;;;;-7.80;48.66;99291.38;1695095;84;21207;-54
2021/01/19 09:18:21;;;;;;;35.65;17.20;;;;;;;-8.28;48.92;99296.31;1695104;85;21195;-54
2021/01/19 09:20:50;;;;;;;34.78;18.25;;;;;;;-8.26;50.27;99294.83;1695062;85;21295;-55
2021/01/19 09:23:19;;;;;;;37.30;17.67;;;;;;;-8.01;50.15;99294.14;1669853;85;21191;-55
2021/01/19 09:25:48;;;;;;;37.80;19.23;;;;;;;-8.13;48.97;99297.67;1695265;84;21294;-54
2021/01/19 09:28:16;;;;;;;27.62;14.35;;;;;;;-8.74;50.12;99290.58;1695035;85;21179;-56
2021/01/19 09:30:43;;;;;;;39.95;18.45;;;;;;;-8.98;50.53;99285.81;1695315;85;21167;-54
2021/01/19 09:33:13;;;;;;;40.30;20.10;;;;;;;-9.32;51.19;99283.08;1695106;85;21167;-57
2021/01/19 09:35:42;;;;;;;39.45;18.07;;;;;;;-9.52;51.70;99284.96;1695220;85;21220;-55
2021/01/19 09:38:21;;;;;;;40.38;19.12;;;;;;;-9.56;52.04;99281.31;1695010;85;21342;-56
2021/01/19 09:40:51;;;;;;;36.53;17.73;;;;;;;-9.53;52.41;99276.59;1694958;85;21164;-54
2021/01/19 09:43:18;;;;;;;37.17;19.10;;;;;;;-9.69;52.05;99282.11;1669767;85;21175;-56
2021/01/19 09:45:46;;;;;;;32.58;15.78;;;;;;;-10.01;53.03;99280.33;1695306;84;21327;-54
2021/01/19 09:48:17;;;;;;;43.00;19.70;;;;;;;-10.01;53.36;99277.83;1695069;85;21128;-57
2021/01/19 09:50:46;;;;;;;43.25;20.82;;;;;;;-10.07;53.73;99279.01;1695413;85;21254;-54
2021/01/19 09:53:46;;;;;;;39.80;18.35;;;;;;;-9.89;53.97;99276.13;1695091;85;21171;-55
2021/01/19 09:56:17;;;;;;;38.25;19.35;;;;;;;-9.92;53.63;99282.43;1669629;85;21136;-54
2021/01/19 09:58:45;;;;;;;42.62;20.17;;;;;;;-9.97;54.38;99278.28;1695208;85;21575;-54
2021/01/19 10:01:25;;;;;;;43.98;20.00;;;;;;;-9.70;54.31;99270.00;1694997;85;21156;-54
2021/01/19 10:03:53;;;;;;;42.78;19.70;;;;;;;-9.60;53.90;99264.27;1695083;85;21298;-54
2021/01/19 10:06:23;;;;;;;47.80;20.88;;;;;;;-9.99;53.75;99265.13;1688250;85;21207;-56
2021/01/19 10:08:56;;;;;;;47.48;21.52;;;;;;;-10.12;54.72;99277.69;1684717;85;21225;-56
2021/01/19 10:11:33;;;;;;;46.53;20.43;;;;;;;-9.99;54.87;99271.00;1684943;85;21221;-56
2021/01/19 10:14:18;;;;;;;47.90;20.68;;;;;;;-9.89;54.92;99277.38;1684686;85;21343;-54
2021/01/19 10:16:48;;;;;;;41.68;21.23;;;;;;;-9.86;54.98;99271.80;1684704;85;21286;-55
2021/01/19 10:19:32;;;;;;;44.50;20.50;;;;;;;-9.71;54.90;99266.13;1684845;85;21334;-55
2021/01/19 10:22:07;;;;;;;46.60;21.17;;;;;;;-9.66;54.71;99261.20;1684643;85;21199;-55
2021/01/19 10:24:36;;;;;;;45.38;19.98;;;;;;;-9.89;54.71;99259.03;1684834;85;21184;-54
2021/01/19 10:27:10;;;;;;;49.33;21.12;;;;;;;-10.27;55.19;99262.11;1684816;85;21207;-56
2021/01/19 10:29:43;;;;;;;46.53;20.10;;;;;;;-10.70;56.08;99264.59;1684780;85;21180;-56
2021/01/19 10:32:14;;;;;;;45.20;20.27;;;;;;;-10.82;56.52;99263.38;1684662;85;21177;-54
2021/01/19 10:34:50;;;;;;;45.92;21.52;;;;;;;-11.15;57.24;99252.70;1684857;85;21170;-56
2021/01/19 10:37:19;;;;;;;42.73;20.77;;;;;;;-11.38;57.82;99257.01;1684852;85;21146;-55
2021/01/19 10:39:59;;;;;;;48.33;21.57;;;;;;;-11.48;58.35;99250.22;1684830;85;21172;-55
2021/01/19 10:42:30;;;;;;;46.55;21.00;;;;;;;-11.65;58.78;99241.07;1684766;85;21140;-54
2021/01/19 10:45:06;;;;;;;43.52;21.20;;;;;;;-11.77;59.31;99244.80;1684901;85;21149;-55
2021/01/19 10:47:45;;;;;;;49.33;21.80;;;;;;;-11.86;59.62;99228.55;1684602;85;21282;-54
2021/01/19 10:50:17;;;;;;;48.78;22.55;;;;;;;-12.03;60.11;99238.45;1684708;85;21160;-55
2021/01/19 10:52:54;;;;;;;;;;;;;;;-12.21;60.72;99234.95;1687207;85;21192;-55
2021/01/19 10:55:23;;;;;;;49.73;21.30;;;;;;;-12.25;60.96;99231.62;1684103;83;20246;-56
2021/01/19 10:57:57;;;;;;;48.02;20.55;;;;;;;-12.26;61.14;99228.26;1684738;85;21180;-54
2021/01/19 11:00:27;;;;;;;46.80;20.68;;;;;;;-12.17;61.36;99220.84;1684843;85;21690;-53
2021/01/19 11:02:56;;;;;;;47.38;19.35;;;;;;;-12.12;61.27;99216.35;1684725;84;21392;-56
2021/01/19 11:05:26;;;;;;;53.75;22.90;;;;;;;-12.16;61.40;99227.61;1684869;85;21286;-55
2021/01/19 11:07:56;;;;;;;51.58;19.95;;;;;;;-12.08;61.63;99220.92;1685004;85;21180;-56
2021/01/19 11:10:26;;;;;;;57.27;23.47;;;;;;;-11.90;61.49;99214.45;1684976;85;21172;-56
2021/01/19 11:12:55;;;;;;;52.58;24.35;;;;;;;-11.61;61.80;99213.25;1685079;85;21563;-56
2021/01/19 11:15:23;;;;;;;51.02;23.73;;;;;;;-11.13;61.27;99212.13;1684745;85;21184;-54
2021/01/19 11:17:52;;;;;;;48.52;21.55;;;;;;;-10.64;60.34;99205.33;1684842;85;21188;-54
2021/01/19 11:20:20;;;;;;;52.08;21.60;;;;;;;-10.32;59.68;99208.44;1684700;85;21169;-56
2021/01/19 11:22:49;;;;;;;52.23;23.00;;;;;;;-9.98;59.15;99206.60;1684783;85;21177;-55
2021/01/19 11:25:17;;;;;;;46.45;20.72;;;;;;;-9.58;58.76;99201.60;1684742;85;21302;-55
2021/01/19 11:27:50;;;;;;;55.20;23.85;;;;;;;-9.20;57.70;99198.88;1684842;85;21327;-56
2021/01/19 11:30:19;;;;;;;47.95;21.00;;;;;;;-8.85;57.58;99188.70;1684851;85;21310;-55
2021/01/19 11:32:47;;;;;;;43.02;19.98;;;;;;;-8.61;55.16;99187.49;1685062;85;21307;-54
2021/01/19 11:35:15;;;;;;;50.45;20.27;;;;;;;-8.73;54.60;99190.14;1685022;85;21311;-56